createdAt,value
2022-09-01T00:00:15.108Z,16.79
2022-09-01T00:02:44.031Z,16.79
2022-09-01T00:05:12.935Z,16.74
2022-09-01T00:07:40.782Z,16.74
2022-09-01T00:10:10.351Z,16.71
2022-09-01T00:12:39.028Z,16.69
2022-09-01T00:15:11.084Z,16.67
2022-09-01T00:17:38.949Z,16.65
2022-09-01T00:20:08.082Z,16.64
2022-09-01T00:22:35.734Z,16.69
2022-09-01T00:25:04.386Z,16.70
2022-09-01T00:27:32.469Z,16.70
2022-09-01T00:30:00.825Z,16.66
2022-09-01T00:32:28.933Z,16.62
2022-09-01T00:34:56.822Z,16.61
2022-09-01T00:37:24.159Z,16.56
2022-09-01T00:39:51.530Z,16.54
2022-09-01T00:42:19.436Z,16.51
2022-09-01T00:44:46.866Z,16.47
2022-09-01T00:47:15.091Z,16.42
2022-09-01T00:49:48.011Z,16.40
2022-09-01T00:52:44.839Z,16.36
2022-09-01T00:55:33.689Z,16.30
2022-09-01T00:58:04.633Z,16.26
2022-09-01T01:00:40.866Z,16.22
2022-09-01T01:03:12.827Z,16.17
2022-09-01T01:06:08.325Z,16.11
2022-09-01T01:08:44.474Z,16.08
2022-09-01T01:11:17.927Z,16.02
2022-09-01T01:14:15.466Z,15.96
2022-09-01T01:16:47.832Z,15.93
2022-09-01T01:19:59.719Z,15.89
2022-09-01T01:23:02.697Z,15.84
2022-09-01T01:25:57.407Z,15.79
2022-09-01T01:28:39.186Z,15.77
2022-09-01T01:31:19.503Z,15.77
2022-09-01T01:33:53.363Z,15.77
2022-09-01T01:36:36.334Z,15.79
2022-09-01T01:39:23.023Z,15.79
2022-09-01T01:41:52.789Z,15.77
2022-09-01T01:44:28.007Z,15.75
2022-09-01T01:46:58.405Z,15.72
2022-09-01T01:49:31.185Z,15.68
2022-09-01T01:51:59.048Z,15.65
2022-09-01T01:54:32.233Z,15.61
2022-09-01T01:57:04.272Z,15.59
2022-09-01T01:59:33.462Z,15.58
2022-09-01T02:02:03.894Z,15.54
2022-09-01T02:04:34.180Z,15.52
2022-09-01T02:07:10.653Z,15.50
2022-09-01T02:09:40.871Z,15.47
2022-09-01T02:12:09.355Z,15.47
2022-09-01T02:14:36.872Z,15.46
2022-09-01T02:17:06.305Z,15.45
2022-09-01T02:19:38.526Z,15.41
2022-09-01T02:22:06.111Z,15.39
2022-09-01T02:24:34.052Z,15.37
2022-09-01T02:27:01.476Z,15.34
2022-09-01T02:29:30.748Z,15.33
2022-09-01T02:32:04.834Z,15.31
2022-09-01T02:34:32.222Z,15.29
2022-09-01T02:36:59.737Z,15.27
2022-09-01T02:39:34.899Z,15.26
2022-09-01T02:42:02.884Z,15.29
2022-09-01T02:44:31.239Z,15.28
2022-09-01T02:47:00.940Z,15.30
2022-09-01T02:49:29.818Z,15.29
2022-09-01T02:52:02.788Z,15.28
2022-09-01T02:54:33.100Z,15.29
2022-09-01T02:57:01.907Z,15.28
2022-09-01T02:59:30.989Z,15.28
2022-09-01T03:02:01.077Z,15.28
2022-09-01T03:04:34.911Z,15.26
2022-09-01T03:07:06.250Z,15.25
2022-09-01T03:09:35.172Z,15.22
2022-09-01T03:12:04.297Z,15.19
2022-09-01T03:14:32.764Z,15.17
2022-09-01T03:17:00.686Z,15.14
2022-09-01T03:19:31.864Z,15.11
2022-09-01T03:22:00.161Z,15.08
2022-09-01T03:24:30.777Z,15.02
2022-09-01T03:26:58.316Z,14.99
2022-09-01T03:29:25.667Z,14.96
2022-09-01T03:31:53.176Z,14.91
2022-09-01T03:34:23.549Z,14.87
2022-09-01T03:36:54.410Z,14.83
2022-09-01T03:39:30.504Z,14.80
2022-09-01T03:41:58.921Z,14.76
2022-09-01T03:44:27.631Z,14.75
2022-09-01T03:46:55.031Z,14.73
2022-09-01T03:49:27.767Z,14.68
2022-09-01T03:51:57.448Z,14.65
2022-09-01T03:54:27.269Z,14.62
2022-09-01T03:56:55.168Z,14.59
2022-09-01T03:59:25.282Z,14.56
2022-09-01T04:01:52.734Z,14.55
2022-09-01T04:04:20.475Z,14.52
2022-09-01T04:06:48.062Z,14.49
2022-09-01T04:09:15.761Z,14.47
2022-09-01T04:11:48.460Z,14.43
2022-09-01T04:14:16.821Z,14.45
2022-09-01T04:17:05.171Z,14.43
2022-09-01T04:19:39.432Z,14.42
2022-09-01T04:22:08.073Z,14.40
2022-09-01T04:24:45.785Z,14.37
2022-09-01T04:27:15.641Z,14.34
2022-09-01T04:29:44.334Z,14.32
2022-09-01T04:32:15.885Z,14.31
2022-09-01T04:34:48.818Z,14.31
2022-09-01T04:37:21.785Z,14.31
2022-09-01T04:39:57.882Z,14.29
2022-09-01T04:42:32.493Z,14.27
2022-09-01T04:45:10.501Z,14.24
2022-09-01T04:47:42.185Z,14.22
2022-09-01T04:50:17.434Z,14.20
2022-09-01T04:53:07.391Z,14.20
2022-09-01T04:55:47.084Z,14.17
2022-09-01T04:58:19.261Z,14.16
2022-09-01T05:00:52.284Z,14.13
2022-09-01T05:03:24.341Z,14.13
2022-09-01T05:06:03.974Z,14.11
2022-09-01T05:08:35.174Z,14.10
2022-09-01T05:11:07.968Z,14.10
2022-09-01T05:13:41.775Z,14.09
2022-09-01T05:16:15.870Z,14.09
2022-09-01T05:18:49.014Z,14.07
2022-09-01T05:21:22.428Z,14.05
2022-09-01T05:23:54.331Z,14.06
2022-09-01T05:26:29.970Z,14.08
2022-09-01T05:29:10.710Z,14.04
2022-09-01T05:31:38.927Z,14.08
2022-09-01T05:34:09.637Z,14.08
2022-09-01T05:36:44.789Z,14.11
2022-09-01T05:39:13.208Z,14.15
2022-09-01T05:41:41.265Z,14.22
2022-09-01T05:44:11.260Z,14.27
2022-09-01T05:46:40.360Z,14.36
2022-09-01T05:49:14.023Z,14.44
2022-09-01T05:51:50.499Z,14.56
2022-09-01T05:54:25.561Z,14.64
2022-09-01T05:56:55.647Z,14.74
2022-09-01T05:59:31.009Z,14.83
2022-09-01T06:02:01.198Z,14.94
2022-09-01T06:04:29.942Z,14.96
2022-09-01T06:07:07.775Z,14.98
2022-09-01T06:09:42.358Z,14.95
2022-09-01T06:12:18.263Z,14.90
2022-09-01T06:14:48.436Z,14.84
2022-09-01T06:17:24.652Z,14.79
2022-09-01T06:19:56.356Z,14.78
2022-09-01T06:22:28.261Z,14.78
2022-09-01T06:25:01.856Z,14.77
2022-09-01T06:27:38.721Z,14.75
2022-09-01T06:30:15.060Z,14.73
2022-09-01T06:32:49.884Z,14.77
2022-09-01T06:35:18.166Z,14.78
2022-09-01T06:37:47.189Z,14.82
2022-09-01T06:40:28.918Z,14.89
2022-09-01T06:42:56.645Z,14.98
2022-09-01T06:45:24.907Z,15.04
2022-09-01T06:47:59.412Z,15.09
2022-09-01T06:56:13.173Z,15.37
2022-09-01T06:58:48.267Z,15.42
2022-09-01T07:01:20.384Z,15.53
2022-09-01T07:03:54.302Z,15.68
2022-09-01T07:10:23.517Z,15.92
2022-09-01T07:13:05.717Z,16.04
2022-09-01T07:18:33.950Z,16.30
2022-09-01T07:21:36.287Z,16.45
2022-09-01T07:24:13.196Z,16.63
2022-09-01T07:26:54.954Z,16.78
2022-09-01T07:29:25.742Z,16.91
2022-09-01T07:34:46.487Z,17.22
2022-09-01T07:38:46.914Z,17.35
2022-09-01T07:42:57.898Z,15.25
2022-09-01T07:43:28.342Z,17.73
2022-09-01T07:51:59.783Z,18.03
2022-09-01T07:54:27.921Z,18.06
2022-09-01T07:56:57.083Z,18.12
2022-09-01T07:59:27.861Z,18.19
2022-09-01T08:02:06.666Z,18.27
2022-09-01T08:04:34.805Z,18.33
2022-09-01T08:07:04.224Z,18.38
2022-09-01T08:09:38.033Z,18.43
2022-09-01T08:12:09.130Z,18.56
2022-09-01T08:14:46.654Z,18.62
2022-09-01T08:17:18.256Z,18.66
2022-09-01T08:20:12.941Z,18.69
2022-09-01T08:22:58.683Z,18.74
2022-09-01T08:25:38.198Z,18.80
2022-09-01T08:28:06.980Z,18.90
2022-09-01T08:30:35.936Z,18.97
2022-09-01T08:33:11.427Z,19.05
2022-09-01T08:35:48.288Z,19.14
2022-09-01T08:38:16.833Z,19.31
2022-09-01T08:40:57.027Z,19.32
2022-09-01T08:44:00.292Z,19.45
2022-09-01T08:46:42.297Z,19.50
2022-09-01T08:49:25.359Z,19.57
2022-09-01T08:53:09.092Z,19.70
2022-09-01T08:55:47.455Z,19.85
2022-09-01T08:58:20.057Z,19.97
2022-09-01T09:02:00.235Z,20.09
2022-09-01T09:04:55.175Z,20.23
2022-09-01T09:07:43.726Z,20.30
2022-09-01T09:10:52.234Z,20.44
2022-09-01T09:13:38.608Z,20.51
2022-09-01T09:16:39.806Z,20.58
2022-09-01T09:19:39.643Z,20.69
2022-09-01T09:22:19.670Z,20.82
2022-09-01T09:25:19.285Z,20.84
2022-09-01T09:28:00.501Z,20.95
2022-09-01T09:30:31.443Z,21.06
2022-09-01T09:33:48.914Z,21.07
2022-09-01T09:36:25.522Z,21.12
2022-09-01T09:39:18.194Z,21.23
2022-09-01T09:42:10.490Z,21.40
2022-09-01T09:44:52.879Z,21.76
2022-09-01T09:47:46.603Z,22.40
2022-09-01T09:50:38.566Z,23.21
2022-09-01T09:53:32.570Z,23.81
2022-09-01T09:56:25.695Z,24.41
2022-09-01T09:58:53.792Z,24.83
2022-09-01T10:01:24.573Z,25.19
2022-09-01T10:04:04.380Z,25.56
2022-09-01T10:06:47.100Z,26.03
2022-09-01T10:09:38.489Z,26.30
2022-09-01T10:12:07.106Z,26.27
2022-09-01T10:14:52.014Z,26.47
2022-09-01T10:17:36.643Z,26.84
2022-09-01T10:20:21.052Z,27.17
2022-09-01T10:22:50.972Z,27.53
2022-09-01T10:25:29.084Z,27.96
2022-09-01T10:28:25.650Z,28.35
2022-09-01T10:30:56.601Z,28.57
2022-09-01T10:33:25.953Z,28.73
2022-09-01T10:35:55.894Z,28.94
2022-09-01T10:38:30.589Z,29.15
2022-09-01T10:41:14.911Z,29.25
2022-09-01T10:43:47.700Z,29.41
2022-09-01T10:46:39.007Z,29.38
2022-09-01T10:49:34.467Z,29.61
2022-09-01T10:52:07.540Z,29.87
2022-09-01T10:54:51.014Z,30.06
2022-09-01T10:57:42.911Z,30.10
2022-09-01T11:00:37.115Z,30.18
2022-09-01T11:06:13.154Z,30.31
2022-09-01T11:09:00.991Z,30.42
2022-09-01T11:12:07.481Z,30.29
2022-09-01T11:14:50.265Z,30.28
2022-09-01T11:17:33.504Z,30.34
2022-09-01T11:20:10.295Z,30.45
2022-09-01T11:23:22.018Z,30.35
2022-09-01T11:28:49.639Z,30.34
2022-09-01T11:31:38.847Z,30.24
2022-09-01T11:34:27.747Z,30.01
2022-09-01T11:37:01.232Z,29.72
2022-09-01T11:39:52.950Z,29.52
2022-09-01T11:42:40.118Z,29.30
2022-09-01T11:45:33.878Z,29.15
2022-09-01T11:48:09.570Z,29.00
2022-09-01T11:50:42.125Z,28.68
2022-09-01T11:53:20.235Z,28.25
2022-09-01T11:55:53.259Z,27.81
2022-09-01T11:58:39.187Z,27.49
2022-09-01T12:01:37.319Z,27.08
2022-09-01T12:04:31.959Z,26.74
2022-09-01T12:07:11.046Z,26.49
2022-09-01T12:09:48.100Z,26.38
2022-09-01T12:12:41.864Z,26.35
2022-09-01T12:15:25.489Z,26.24
2022-09-01T12:18:08.173Z,26.16
2022-09-01T12:20:39.103Z,26.05
2022-09-01T12:23:24.631Z,25.95
2022-09-01T12:26:01.865Z,25.93
2022-09-01T12:28:34.330Z,25.92
2022-09-01T12:31:08.152Z,25.86
2022-09-01T12:33:36.923Z,25.82
2022-09-01T12:36:28.579Z,25.86
2022-09-01T12:39:23.570Z,25.78
2022-09-01T12:42:24.513Z,25.72
2022-09-01T12:44:59.170Z,25.65
2022-09-01T12:47:48.102Z,25.57
2022-09-01T12:50:17.000Z,25.56
2022-09-01T12:52:54.858Z,25.54
2022-09-01T12:55:48.094Z,25.65
2022-09-01T12:58:26.748Z,25.69
2022-09-01T13:01:16.236Z,25.66
2022-09-01T13:04:22.720Z,25.66
2022-09-01T13:06:52.390Z,25.67
2022-09-01T13:09:20.285Z,25.63
2022-09-01T13:14:35.201Z,25.72
2022-09-01T13:17:02.575Z,25.77
2022-09-01T13:19:30.485Z,25.81
2022-09-01T13:21:58.544Z,25.88
2022-09-01T13:24:30.166Z,26.07
2022-09-01T13:29:46.967Z,26.46
2022-09-01T13:32:19.143Z,26.63
2022-09-01T13:34:51.973Z,26.61
2022-09-01T13:37:22.509Z,26.64
2022-09-01T13:39:50.821Z,26.68
2022-09-01T13:42:18.384Z,26.53
2022-09-01T13:44:49.718Z,26.39
2022-09-01T13:48:14.815Z,26.28
2022-09-01T13:50:12.242Z,26.17
2022-09-01T13:52:45.863Z,26.12
2022-09-01T13:55:43.182Z,26.01
2022-09-01T13:58:12.478Z,26.02
2022-09-01T14:00:47.119Z,26.05
2022-09-01T14:03:22.850Z,26.13
2022-09-01T14:05:51.164Z,26.22
2022-09-01T14:08:23.866Z,26.14
2022-09-01T14:10:53.738Z,26.07
2022-09-01T14:13:25.429Z,26.08
2022-09-01T14:15:54.176Z,26.09
2022-09-01T14:18:22.643Z,26.09
2022-09-01T14:20:52.237Z,26.08
2022-09-01T14:23:20.696Z,26.16
2022-09-01T14:25:51.475Z,26.31
2022-09-01T14:28:23.029Z,26.83
2022-09-01T14:33:24.430Z,27.19
2022-09-01T14:35:51.847Z,27.22
2022-09-01T14:38:20.181Z,27.66
2022-09-01T14:40:51.607Z,27.92
2022-09-01T14:43:20.025Z,27.77
2022-09-01T14:45:48.120Z,27.89
2022-09-01T14:48:20.727Z,28.44
2022-09-01T14:50:50.932Z,28.88
2022-09-01T14:53:19.469Z,29.54
2022-09-01T14:55:46.930Z,30.14
2022-09-01T14:58:14.315Z,30.80
2022-09-01T15:00:42.249Z,31.31
2022-09-01T15:03:09.890Z,31.72
2022-09-01T15:05:40.111Z,32.14
2022-09-01T15:08:15.552Z,32.43
2022-09-01T15:10:45.099Z,32.67
2022-09-01T15:13:13.663Z,32.96
2022-09-01T15:15:41.621Z,33.00
2022-09-01T15:18:09.233Z,32.84
2022-09-01T15:20:46.273Z,32.83
2022-09-01T15:23:25.908Z,32.94
2022-09-01T15:25:55.996Z,33.03
2022-09-01T15:28:25.480Z,33.14
2022-09-01T15:30:54.494Z,32.96
2022-09-01T15:33:22.016Z,32.91
2022-09-01T15:35:49.390Z,33.00
2022-09-01T15:38:17.936Z,33.04
2022-09-01T15:40:57.750Z,33.02
2022-09-01T15:43:30.503Z,32.92
2022-09-01T15:46:07.323Z,33.03
2022-09-01T15:48:38.636Z,33.06
2022-09-01T15:51:37.381Z,33.02
2022-09-01T15:54:19.832Z,32.87
2022-09-01T15:56:59.644Z,32.81
2022-09-01T15:59:27.014Z,32.85
2022-09-01T16:01:59.692Z,32.73
2022-09-01T16:04:57.085Z,32.51
2022-09-01T16:07:29.569Z,32.08
2022-09-01T16:10:06.986Z,31.49
2022-09-01T16:12:35.810Z,30.91
2022-09-01T16:15:03.777Z,30.31
2022-09-01T16:18:05.290Z,29.61
2022-09-01T16:21:32.644Z,28.76
2022-09-01T16:24:10.113Z,28.14
2022-09-01T16:26:38.438Z,27.75
2022-09-01T16:29:55.701Z,27.45
2022-09-01T16:32:24.153Z,27.16
2022-09-01T16:34:53.437Z,26.95
2022-09-01T16:37:56.767Z,26.74
2022-09-01T16:41:43.943Z,26.48
2022-09-01T16:44:50.812Z,26.31
2022-09-01T16:47:38.730Z,26.19
2022-09-01T16:50:40.206Z,26.09
2022-09-01T16:53:25.569Z,26.00
2022-09-01T16:56:09.545Z,25.86
2022-09-01T16:59:23.951Z,25.73
2022-09-01T17:02:38.128Z,25.62
2022-09-01T17:05:57.191Z,25.50
2022-09-01T17:08:41.660Z,25.43
2022-09-01T17:11:26.941Z,25.35
2022-09-01T17:13:56.147Z,25.29
2022-09-01T17:16:39.484Z,25.22
2022-09-01T17:19:21.119Z,25.17
2022-09-01T17:22:11.057Z,25.10
2022-09-01T17:24:51.263Z,25.04
2022-09-01T17:28:09.113Z,25.01
2022-09-01T17:30:53.527Z,24.96
2022-09-01T17:33:50.053Z,24.88
2022-09-01T17:36:49.004Z,24.82
2022-09-01T17:39:49.368Z,24.74
2022-09-01T17:42:32.746Z,24.65
2022-09-01T17:45:30.744Z,24.55
2022-09-01T17:48:18.171Z,24.47
2022-09-01T17:51:06.818Z,24.40
2022-09-01T17:53:58.168Z,24.33
2022-09-01T17:56:37.289Z,24.24
2022-09-01T17:59:38.596Z,24.15
2022-09-01T18:02:41.908Z,24.07
2022-09-01T18:05:24.644Z,23.97
2022-09-01T18:08:07.150Z,23.87
2022-09-01T18:11:15.821Z,23.79
2022-09-01T18:13:53.143Z,23.69
2022-09-01T18:16:41.713Z,23.59
2022-09-01T18:19:24.630Z,23.51
2022-09-01T18:22:07.102Z,23.45
2022-09-01T18:25:07.682Z,23.34
2022-09-01T18:27:36.780Z,23.26
2022-09-01T18:30:06.164Z,23.17
2022-09-01T18:33:19.342Z,23.10
2022-09-01T18:36:22.086Z,23.01
2022-09-01T18:40:00.760Z,22.90
2022-09-01T18:42:41.580Z,22.82
2022-09-01T18:45:53.697Z,22.73
2022-09-01T18:49:03.687Z,22.64
2022-09-01T18:52:10.932Z,22.54
2022-09-01T18:55:17.208Z,22.46
2022-09-01T18:57:53.275Z,22.36
2022-09-01T19:00:52.219Z,22.29
2022-09-01T19:03:54.222Z,22.17
2022-09-01T19:06:59.895Z,22.11
2022-09-01T19:09:59.937Z,22.02
2022-09-01T19:13:17.749Z,21.95
2022-09-01T19:16:58.390Z,21.84
2022-09-01T19:19:57.564Z,21.76
2022-09-01T19:23:16.856Z,21.67
2022-09-01T19:25:45.525Z,21.58
2022-09-01T19:28:52.824Z,21.49
2022-09-01T19:31:34.405Z,21.42
2022-09-01T19:34:25.709Z,21.35
2022-09-01T19:36:59.737Z,21.27
2022-09-01T19:39:39.869Z,21.20
2022-09-01T19:42:42.686Z,21.13
2022-09-01T19:45:36.083Z,21.05
2022-09-01T19:48:17.045Z,20.99
2022-09-01T19:51:11.766Z,20.93
2022-09-01T19:54:17.780Z,20.87
2022-09-01T19:57:19.045Z,20.81
2022-09-01T20:00:28.165Z,20.75
2022-09-01T20:03:12.662Z,20.68
2022-09-01T20:06:08.514Z,20.63
2022-09-01T20:09:05.790Z,20.56
2022-09-01T20:12:22.529Z,20.51
2022-09-01T20:15:24.475Z,20.47
2022-09-01T20:18:19.900Z,20.41
2022-09-01T20:20:50.997Z,20.36
2022-09-01T20:23:37.541Z,20.33
2022-09-01T20:26:29.045Z,20.28
2022-09-01T20:29:45.872Z,20.23
2022-09-01T20:32:27.647Z,20.19
2022-09-01T20:35:20.666Z,20.15
2022-09-01T20:38:01.059Z,20.11
2022-09-01T20:40:41.131Z,20.04
2022-09-01T20:43:30.848Z,20.03
2022-09-01T20:45:58.382Z,19.97
2022-09-01T20:48:30.449Z,19.93
2022-09-01T20:51:27.542Z,19.90
2022-09-01T20:54:31.294Z,19.84
2022-09-01T20:57:55.365Z,19.82
2022-09-01T21:00:30.427Z,19.76
2022-09-01T21:03:49.072Z,19.71
2022-09-01T21:07:13.852Z,19.66
2022-09-01T21:09:59.882Z,19.61
2022-09-01T21:12:42.060Z,19.55
2022-09-01T21:15:33.886Z,19.52
2022-09-01T21:18:39.893Z,19.49
2022-09-01T21:21:45.497Z,19.46
2022-09-01T21:24:13.312Z,19.42
2022-09-01T21:26:40.713Z,19.38
2022-09-01T21:29:55.593Z,19.33
2022-09-01T21:32:24.078Z,19.29
2022-09-01T21:34:53.084Z,19.26
2022-09-01T21:37:23.608Z,19.22
2022-09-01T21:39:53.983Z,19.20
2022-09-01T21:42:44.787Z,19.16
2022-09-01T21:45:18.160Z,19.13
2022-09-01T21:47:48.727Z,19.10
2022-09-01T21:50:20.938Z,19.10
2022-09-01T21:52:48.777Z,19.05
2022-09-01T21:55:22.075Z,19.02
2022-09-01T21:57:51.798Z,19.01
2022-09-01T22:00:36.303Z,18.99
2022-09-01T22:03:04.118Z,18.93
2022-09-01T22:05:33.361Z,18.91
2022-09-01T22:08:01.500Z,18.87
2022-09-01T22:10:31.844Z,18.85
2022-09-01T22:13:03.695Z,18.84
2022-09-01T22:15:31.710Z,18.79
2022-09-01T22:17:59.323Z,18.73
2022-09-01T22:20:28.555Z,18.69
2022-09-01T22:22:57.896Z,18.63
2022-09-01T22:25:25.611Z,18.61
2022-09-01T22:27:52.929Z,18.59
2022-09-01T22:30:20.429Z,18.55
2022-09-01T22:32:47.993Z,18.51
2022-09-01T22:35:18.323Z,18.47
2022-09-01T22:37:46.625Z,18.44
2022-09-01T22:40:15.942Z,18.42
2022-09-01T22:42:44.275Z,18.36
2022-09-01T22:45:15.003Z,18.34
2022-09-01T22:47:42.741Z,18.32
2022-09-01T22:50:11.421Z,18.28
2022-09-01T22:52:39.721Z,18.22
2022-09-01T22:55:09.875Z,18.21
2022-09-01T22:57:37.710Z,18.17
2022-09-01T23:00:11.248Z,18.17
2022-09-01T23:02:44.819Z,18.16
2022-09-01T23:05:12.265Z,18.12
2022-09-01T23:07:39.993Z,18.08
2022-09-01T23:10:19.467Z,18.06
2022-09-01T23:12:49.406Z,18.03
2022-09-01T23:15:20.617Z,18.00
2022-09-01T23:17:56.399Z,17.98
2022-09-01T23:20:23.925Z,17.92
2022-09-01T23:22:51.244Z,17.88
2022-09-01T23:25:18.961Z,17.84
2022-09-01T23:27:47.100Z,17.80
2022-09-01T23:30:16.246Z,17.77
2022-09-01T23:32:44.120Z,17.74
2022-09-01T23:35:12.360Z,17.71
2022-09-01T23:37:39.688Z,17.66
2022-09-01T23:40:08.780Z,17.61
2022-09-01T23:42:36.322Z,17.55
2022-09-01T23:45:04.949Z,17.49
2022-09-01T23:47:32.275Z,17.44
2022-09-01T23:49:59.541Z,17.39
2022-09-01T23:52:26.993Z,17.34
2022-09-01T23:54:54.587Z,17.31
2022-09-01T23:57:21.997Z,17.27
2022-09-01T23:59:49.657Z,17.22
